Time;durP1;ratioP1;P1;durP2;ratioP2;P2;SDS_P1;SDS_P2;PMS_P1;PMS_P2;Temp;Humidity;BMP_temperature;BMP_pressure;BME280_temperature;BME280_humidity;BME280_pressure;Samples;Min_cycle;Max_cycle;Signal;HPM_P1;HPM_P2
2022/11/13 07:00:39;;;;;;;;;21.00;20.00;;;;;;;;5819251;22;46537;-52
2022/11/13 07:03:04;;;;;;;;;19.67;19.67;;;;;;;;5000546;28;45401;-50
2022/11/13 07:05:29;;;;;;;;;24.33;21.67;;;;;;;;5000243;28;45637;-50
2022/11/13 07:07:54;;;;;;;;;23.67;23.33;;;;;;;;4989454;28;45461;-53
2022/11/13 07:10:19;;;;;;;;;20.00;18.33;;;;;;;;5000348;28;45500;-54
2022/11/13 07:12:45;;;;;;;;;25.67;23.00;;;;;;;;5000123;28;45368;-52
2022/11/13 07:15:10;;;;;;;;;22.33;20.33;;;;;;;;5000731;28;45274;-52
2022/11/13 07:17:35;;;;;;;;;24.00;18.33;;;;;;;;4998385;28;47191;-54
2022/11/13 07:20:00;;;;;;;;;21.00;19.00;;;;;;;;4999825;28;45447;-53
2022/11/13 07:22:26;;;;;;;;;22.67;20.00;;;;;;;;4997859;28;45593;-49
2022/11/13 07:24:52;;;;;;;;;20.00;19.67;;;;;;;;4999481;28;45444;-51
2022/11/13 07:27:17;;;;;;;;;23.67;19.33;;;;;;;;4996903;28;46045;-53
2022/11/13 07:29:42;;;;;;;;;29.33;25.67;;;;;;;;4999597;28;45353;-49
2022/11/13 07:32:07;;;;;;;;;27.67;26.00;;;;;;;;5000189;28;45490;-50
2022/11/13 07:34:32;;;;;;;;;26.00;24.67;;;;;;;;5000669;28;45658;-56
2022/11/13 07:36:57;;;;;;;;;26.67;26.67;;;;;;;;4995974;28;46920;-53
2022/11/13 07:39:23;;;;;;;;;30.67;27.33;;;;;;;;4994555;28;45460;-51
2022/11/13 07:41:48;;;;;;;;;27.67;26.00;;;;;;;;4993162;28;45398;-51
2022/11/13 07:44:13;;;;;;;;;30.67;26.33;;;;;;;;4999012;28;45368;-52
2022/11/13 07:46:38;;;;;;;;;27.00;24.67;;;;;;;;4999524;28;46352;-53
2022/11/13 07:49:04;;;;;;;;;32.33;29.00;;;;;;;;4997471;28;45429;-54
2022/11/13 07:51:29;;;;;;;;;21.00;19.00;;;;;;;;5000274;28;45258;-52
2022/11/13 07:53:54;;;;;;;;;27.33;26.00;;;;;;;;4999839;28;45302;-54
2022/11/13 07:56:21;;;;;;;;;31.00;27.00;;;;;;;;4998693;28;46220;-51
2022/11/13 07:58:46;;;;;;;;;25.33;23.33;;;;;;;;4995385;28;45734;-52
2022/11/13 08:01:12;;;;;;;;;31.00;29.33;;;;;;;;4992704;28;45422;-51
2022/11/13 08:03:37;;;;;;;;;30.67;29.33;;;;;;;;4995241;28;45337;-55
2022/11/13 08:06:04;;;;;;;;;28.67;26.67;;;;;;;;4983886;28;45519;-53
2022/11/13 08:08:29;;;;;;;;;29.33;27.67;;;;;;;;4983566;28;45338;-53
2022/11/13 08:10:54;;;;;;;;;28.67;26.33;;;;;;;;4985463;28;45834;-52
2022/11/13 08:13:19;;;;;;;;;29.33;26.33;;;;;;;;4984224;28;45584;-51
2022/11/13 08:15:45;;;;;;;;;31.00;29.67;;;;;;;;4981771;28;46005;-53
2022/11/13 08:18:10;;;;;;;;;28.00;26.33;;;;;;;;4996288;28;45761;-52
2022/11/13 08:20:35;;;;;;;;;28.67;26.33;;;;;;;;4998500;28;45503;-52
2022/11/13 08:23:01;;;;;;;;;26.33;25.33;;;;;;;;4999146;28;46132;-51
2022/11/13 08:25:27;;;;;;;;;31.00;28.33;;;;;;;;4999412;28;46117;-53
2022/11/13 08:27:53;;;;;;;;;31.00;31.00;;;;;;;;4996557;28;45285;-50
2022/11/13 08:30:18;;;;;;;;;33.33;28.67;;;;;;;;4997542;28;45304;-51
2022/11/13 08:32:44;;;;;;;;;34.00;30.33;;;;;;;;4997641;28;45203;-55
2022/11/13 08:35:09;;;;;;;;;29.67;27.33;;;;;;;;4997958;28;46078;-54
2022/11/13 08:37:34;;;;;;;;;27.33;24.67;;;;;;;;4998159;28;45343;-51
2022/11/13 08:40:00;;;;;;;;;34.67;30.67;;;;;;;;4997890;28;45460;-52
2022/11/13 08:42:25;;;;;;;;;31.00;30.00;;;;;;;;4998206;28;45342;-54
2022/11/13 08:44:50;;;;;;;;;31.00;29.67;;;;;;;;4998070;28;46083;-53
2022/11/13 08:47:15;;;;;;;;;26.33;26.00;;;;;;;;4996657;28;45421;-52
2022/11/13 08:49:40;;;;;;;;;31.67;28.67;;;;;;;;4998253;28;45435;-56
2022/11/13 08:52:06;;;;;;;;;27.67;27.67;;;;;;;;4995324;28;45533;-54
2022/11/13 08:54:31;;;;;;;;;31.67;25.00;;;;;;;;4992560;28;45792;-51
2022/11/13 08:56:56;;;;;;;;;31.00;28.67;;;;;;;;4997876;28;45508;-53
2022/11/13 08:59:22;;;;;;;;;31.33;30.67;;;;;;;;4995605;28;45325;-54
2022/11/13 09:01:47;;;;;;;;;34.00;32.00;;;;;;;;4996904;28;45599;-52
2022/11/13 09:04:13;;;;;;;;;35.33;27.33;;;;;;;;4998927;28;46249;-54
2022/11/13 09:06:38;;;;;;;;;29.00;25.00;;;;;;;;4998457;28;45480;-50
2022/11/13 09:09:04;;;;;;;;;34.67;31.33;;;;;;;;4995018;28;45883;-50
2022/11/13 09:11:29;;;;;;;;;31.00;28.00;;;;;;;;4993155;28;45504;-53
2022/11/13 09:13:55;;;;;;;;;33.00;30.33;;;;;;;;4998304;28;45763;-53
2022/11/13 09:16:20;;;;;;;;;32.00;30.33;;;;;;;;4998908;28;45736;-50
2022/11/13 09:18:49;;;;;;;;;36.67;32.67;;;;;;;;4997907;28;46009;-54
2022/11/13 09:21:14;;;;;;;;;37.33;30.67;;;;;;;;4998933;28;45370;-52
2022/11/13 09:23:39;;;;;;;;;35.67;31.00;;;;;;;;4997882;28;45460;-51
2022/11/13 09:26:04;;;;;;;;;31.33;28.33;;;;;;;;4998077;28;45381;-59
2022/11/13 09:28:29;;;;;;;;;30.00;30.00;;;;;;;;4993760;28;45409;-59
2022/11/13 09:30:54;;;;;;;;;30.00;27.00;;;;;;;;4998100;28;45352;-59
2022/11/13 09:33:20;;;;;;;;;25.33;24.33;;;;;;;;4997151;28;45576;-59
2022/11/13 09:35:45;;;;;;;;;29.33;28.67;;;;;;;;4996325;28;45231;-59
2022/11/13 09:38:11;;;;;;;;;31.00;30.00;;;;;;;;4996836;28;45384;-58
2022/11/13 09:40:37;;;;;;;;;28.00;27.67;;;;;;;;4996414;28;45480;-58
2022/11/13 09:43:05;;;;;;;;;31.67;30.67;;;;;;;;4996905;28;45403;-60
2022/11/13 09:45:32;;;;;;;;;35.33;30.67;;;;;;;;4984352;28;45429;-59
2022/11/13 09:48:02;;;;;;;;;24.00;23.33;;;;;;;;4986920;28;45806;-60
2022/11/13 09:50:30;;;;;;;;;33.33;30.67;;;;;;;;4996023;28;45730;-60
2022/11/13 09:52:55;;;;;;;;;30.67;29.33;;;;;;;;4997731;28;47196;-60
2022/11/13 09:55:24;;;;;;;;;31.00;30.33;;;;;;;;4995106;28;45384;-60
2022/11/13 09:57:52;;;;;;;;;29.00;28.33;;;;;;;;4998940;28;45536;-60
2022/11/13 10:00:19;;;;;;;;;38.67;33.00;;;;;;;;4998095;28;45709;-60
2022/11/13 10:03:03;;;;;;;;;34.33;28.33;;;;;;;;4997630;28;46272;-60
2022/11/13 10:05:36;;;;;;;;;32.00;30.00;;;;;;;;4997427;28;45408;-60
2022/11/13 10:08:16;;;;;;;;;34.00;29.67;;;;;;;;4997914;28;45432;-60
2022/11/13 10:11:01;;;;;;;;;29.00;28.67;;;;;;;;4996089;28;45527;-60
2022/11/13 10:13:28;;;;;;;;;28.67;26.67;;;;;;;;4994543;28;45692;-60
2022/11/13 10:15:59;;;;;;;;;30.67;28.00;;;;;;;;4993822;28;45497;-60
2022/11/13 10:18:27;;;;;;;;;30.67;29.67;;;;;;;;4993447;28;45381;-60
2022/11/13 10:20:58;;;;;;;;;27.33;27.33;;;;;;;;5001184;28;45666;-60
2022/11/13 10:23:26;;;;;;;;;34.67;29.33;;;;;;;;4999683;28;45793;-60
2022/11/13 10:25:55;;;;;;;;;32.00;29.00;;;;;;;;4997248;28;45389;-60
2022/11/13 10:28:22;;;;;;;;;32.67;27.33;;;;;;;;4995290;28;45443;-60
2022/11/13 10:30:47;;;;;;;;;29.00;28.33;;;;;;;;5000058;28;45654;-61
2022/11/13 10:33:17;;;;;;;;;26.33;24.67;;;;;;;;4966693;28;47718;-61
2022/11/13 10:35:54;;;;;;;;;28.67;27.33;;;;;;;;5000529;28;45431;-60
2022/11/13 10:38:23;;;;;;;;;31.67;24.00;;;;;;;;4998312;28;45405;-60
2022/11/13 10:40:48;;;;;;;;;29.33;28.67;;;;;;;;4994381;28;45676;-60
2022/11/13 10:43:16;;;;;;;;;26.33;25.33;;;;;;;;4993425;28;46321;-60
2022/11/13 10:46:01;;;;;;;;;21.00;17.67;;;;;;;;4996497;28;45365;-60
2022/11/13 10:48:36;;;;;;;;;28.00;26.33;;;;;;;;4996066;28;45385;-60
2022/11/13 10:51:03;;;;;;;;;33.33;26.00;;;;;;;;5000860;28;45480;-60
2022/11/13 10:53:36;;;;;;;;;30.33;25.67;;;;;;;;4999604;28;45444;-60
2022/11/13 10:56:11;;;;;;;;;30.00;29.67;;;;;;;;4997507;28;45409;-60
2022/11/13 10:58:36;;;;;;;;;26.00;24.33;;;;;;;;4987832;28;45819;-60
2022/11/13 11:01:12;;;;;;;;;27.00;27.00;;;;;;;;4997582;28;45507;-60
2022/11/13 11:03:47;;;;;;;;;31.67;28.67;;;;;;;;4995852;28;46827;-60
2022/11/13 11:06:12;;;;;;;;;27.00;26.00;;;;;;;;5000302;28;45467;-60
2022/11/13 11:08:37;;;;;;;;;31.33;29.67;;;;;;;;4999032;28;45480;-60
2022/11/13 11:14:23;;;;;;;;;25.67;25.33;;;;;;;;4997362;28;45818;-60
2022/11/13 11:16:51;;;;;;;;;24.00;24.00;;;;;;;;4943121;28;45441;-60
2022/11/13 11:19:18;;;;;;;;;30.00;26.33;;;;;;;;5009486;28;45424;-60
2022/11/13 11:21:44;;;;;;;;;32.00;29.67;;;;;;;;4999779;28;45385;-60
2022/11/13 11:24:19;;;;;;;;;28.67;28.00;;;;;;;;4999661;28;47022;-60
2022/11/13 11:26:48;;;;;;;;;29.33;28.67;;;;;;;;4979939;28;45333;-60
2022/11/13 11:29:17;;;;;;;;;29.33;26.00;;;;;;;;4975430;28;45400;-60
2022/11/13 11:31:54;;;;;;;;;30.00;29.67;;;;;;;;4990993;28;45612;-59
2022/11/13 11:34:19;;;;;;;;;27.67;26.67;;;;;;;;4997550;28;46191;-60
2022/11/13 11:37:01;;;;;;;;;25.00;23.67;;;;;;;;4998213;28;45361;-59
2022/11/13 11:39:27;;;;;;;;;25.00;25.00;;;;;;;;4995900;28;45597;-58
2022/11/13 11:41:57;;;;;;;;;25.33;25.00;;;;;;;;4997848;28;45349;-60
2022/11/13 11:44:41;;;;;;;;;32.00;28.67;;;;;;;;4999867;28;46349;-59
2022/11/13 11:47:12;;;;;;;;;33.33;27.00;;;;;;;;5000301;28;45319;-60
2022/11/13 11:49:37;;;;;;;;;28.33;26.33;;;;;;;;4996880;28;45351;-58
2022/11/13 11:52:03;;;;;;;;;30.33;30.00;;;;;;;;4999839;28;45404;-60
2022/11/13 11:54:42;;;;;;;;;27.33;27.00;;;;;;;;5000097;28;45404;-60
2022/11/13 11:57:26;;;;;;;;;29.00;29.00;;;;;;;;5000254;28;45392;-60
2022/11/13 12:00:00;;;;;;;;;36.33;31.00;;;;;;;;4995518;28;45618;-60
2022/11/13 12:02:25;;;;;;;;;29.33;27.33;;;;;;;;4999862;28;45277;-58
2022/11/13 12:05:04;;;;;;;;;33.67;27.33;;;;;;;;4997699;28;46078;-59
2022/11/13 12:07:53;;;;;;;;;33.00;29.67;;;;;;;;4999711;28;45561;-59
2022/11/13 12:10:21;;;;;;;;;28.67;28.67;;;;;;;;4994166;28;45398;-59
2022/11/13 12:13:04;;;;;;;;;34.33;30.00;;;;;;;;4988256;28;45491;-59
2022/11/13 12:15:41;;;;;;;;;28.67;26.33;;;;;;;;4996536;28;46209;-59
2022/11/13 12:18:18;;;;;;;;;33.00;27.33;;;;;;;;4996686;28;45452;-60
2022/11/13 12:20:46;;;;;;;;;35.67;32.67;;;;;;;;4990708;28;45407;-60
2022/11/13 12:23:14;;;;;;;;;30.67;25.33;;;;;;;;4995475;28;45492;-60
2022/11/13 12:25:53;;;;;;;;;33.00;30.67;;;;;;;;4999327;28;45453;-60
2022/11/13 12:28:20;;;;;;;;;33.33;30.33;;;;;;;;4997249;28;45471;-60
2022/11/13 12:30:51;;;;;;;;;33.67;31.00;;;;;;;;4992675;28;45493;-60
2022/11/13 12:33:25;;;;;;;;;25.67;25.67;;;;;;;;4993752;28;45523;-60
2022/11/13 12:35:52;;;;;;;;;35.00;32.33;;;;;;;;4994166;28;46297;-59
2022/11/13 12:38:29;;;;;;;;;37.00;31.00;;;;;;;;4984355;28;46914;-59
2022/11/13 12:41:00;;;;;;;;;32.00;29.33;;;;;;;;4994192;28;45703;-60
2022/11/13 12:43:28;;;;;;;;;36.00;31.67;;;;;;;;4997430;28;45837;-60
2022/11/13 12:45:55;;;;;;;;;35.00;32.00;;;;;;;;4994863;28;45340;-61
2022/11/13 12:48:31;;;;;;;;;31.33;30.67;;;;;;;;4993563;28;45432;-60
2022/11/13 12:51:01;;;;;;;;;30.67;30.33;;;;;;;;4998002;28;45428;-59
2022/11/13 12:53:29;;;;;;;;;30.33;29.00;;;;;;;;4996775;28;45334;-60
2022/11/13 12:55:58;;;;;;;;;33.00;30.67;;;;;;;;4997690;28;46379;-60
2022/11/13 12:58:25;;;;;;;;;35.67;33.33;;;;;;;;5005464;28;45471;-58
2022/11/13 13:00:57;;;;;;;;;41.33;34.33;;;;;;;;4997650;28;45273;-59
2022/11/13 13:03:31;;;;;;;;;35.00;29.33;;;;;;;;4991739;28;45601;-58
2022/11/13 13:06:17;;;;;;;;;36.67;33.33;;;;;;;;4996715;28;45528;-58
2022/11/13 13:08:55;;;;;;;;;36.67;30.00;;;;;;;;4954886;28;45566;-57
2022/11/13 13:11:23;;;;;;;;;35.00;31.33;;;;;;;;4996441;28;45654;-58
2022/11/13 13:13:48;;;;;;;;;33.00;31.00;;;;;;;;4994961;28;45473;-57
2022/11/13 13:16:20;;;;;;;;;36.50;34.00;;;;;;;;4992440;28;45776;-57
2022/11/13 13:18:46;;;;;;;;;34.00;32.00;;;;;;;;4985150;28;45319;-58
2022/11/13 13:21:13;;;;;;;;;30.67;28.67;;;;;;;;4984650;28;45534;-58
2022/11/13 13:23:40;;;;;;;;;32.67;31.00;;;;;;;;4981006;28;45560;-58
2022/11/13 13:26:12;;;;;;;;;40.33;35.33;;;;;;;;4998504;28;46051;-58
2022/11/13 13:28:38;;;;;;;;;40.67;35.00;;;;;;;;4984865;28;45511;-58
2022/11/13 13:31:12;;;;;;;;;37.00;32.00;;;;;;;;4997008;28;45519;-58
2022/11/13 13:33:52;;;;;;;;;31.00;29.67;;;;;;;;4998691;28;45488;-59
2022/11/13 13:36:28;;;;;;;;;35.33;32.33;;;;;;;;4995392;28;46050;-57
2022/11/13 13:39:01;;;;;;;;;36.00;31.33;;;;;;;;4999100;28;45293;-57
2022/11/13 13:41:40;;;;;;;;;35.67;31.67;;;;;;;;4998330;28;45345;-58
2022/11/13 13:44:16;;;;;;;;;34.33;30.67;;;;;;;;4996815;28;45563;-57
2022/11/13 13:46:41;;;;;;;;;36.33;33.00;;;;;;;;4997081;28;45534;-57
2022/11/13 13:49:13;;;;;;;;;44.67;35.67;;;;;;;;4997906;28;45361;-57
2022/11/13 13:51:43;;;;;;;;;36.33;31.00;;;;;;;;4987931;28;45535;-57
2022/11/13 13:54:12;;;;;;;;;30.33;28.33;;;;;;;;4997946;28;45414;-57
2022/11/13 13:56:41;;;;;;;;;37.33;33.00;;;;;;;;4997660;28;46456;-58
2022/11/13 13:59:18;;;;;;;;;33.00;31.33;;;;;;;;4997314;28;45643;-57
2022/11/13 14:01:52;;;;;;;;;45.33;34.33;;;;;;;;4994806;28;45519;-57
2022/11/13 14:04:18;;;;;;;;;31.67;29.33;;;;;;;;4997573;28;45473;-57
2022/11/13 14:06:51;;;;;;;;;35.00;32.00;;;;;;;;4997200;28;46358;-57
2022/11/13 14:09:21;;;;;;;;;35.67;32.67;;;;;;;;4997735;28;45416;-57
2022/11/13 14:11:49;;;;;;;;;30.33;30.33;;;;;;;;4985465;28;45432;-57
2022/11/13 14:14:16;;;;;;;;;35.00;32.00;;;;;;;;4997562;28;45525;-57
2022/11/13 14:16:51;;;;;;;;;36.67;32.67;;;;;;;;4996174;28;45334;-58
2022/11/13 14:19:17;;;;;;;;;35.00;32.33;;;;;;;;4993027;28;45479;-56
2022/11/13 14:21:44;;;;;;;;;34.33;27.33;;;;;;;;4997301;28;45459;-58
2022/11/13 14:24:21;;;;;;;;;36.33;31.33;;;;;;;;4996327;28;45266;-55
2022/11/13 14:26:47;;;;;;;;;33.67;30.67;;;;;;;;4986006;28;46527;-57
2022/11/13 14:29:25;;;;;;;;;41.00;31.33;;;;;;;;4996178;28;45337;-57
2022/11/13 14:31:51;;;;;;;;;33.33;31.67;;;;;;;;4985869;28;45366;-57
2022/11/13 14:34:18;;;;;;;;;31.67;28.67;;;;;;;;4996027;28;45444;-57
2022/11/13 14:36:43;;;;;;;;;30.67;29.00;;;;;;;;4996770;28;46453;-57
2022/11/13 14:39:20;;;;;;;;;30.67;29.67;;;;;;;;4997255;28;45385;-58
2022/11/13 14:41:48;;;;;;;;;23.00;21.33;;;;;;;;4997633;28;45414;-58
2022/11/13 14:44:24;;;;;;;;;32.33;29.67;;;;;;;;4993604;28;45418;-58
2022/11/13 14:46:57;;;;;;;;;33.33;31.33;;;;;;;;5000156;28;45708;-58
2022/11/13 14:49:40;;;;;;;;;33.67;30.00;;;;;;;;4999623;28;45406;-56
2022/11/13 14:52:05;;;;;;;;;28.00;27.50;;;;;;;;5000240;28;45783;-57
2022/11/13 14:54:32;;;;;;;;;26.33;24.67;;;;;;;;5000680;28;45440;-57
2022/11/13 14:57:11;;;;;;;;;33.00;28.67;;;;;;;;4999921;28;46335;-57
2022/11/13 14:59:36;;;;;;;;;32.67;30.67;;;;;;;;4993975;28;45395;-57
2022/11/13 15:02:02;;;;;;;;;30.00;29.67;;;;;;;;4992640;28;45547;-57
2022/11/13 15:04:27;;;;;;;;;27.00;25.33;;;;;;;;4982912;28;45370;-57
2022/11/13 15:06:55;;;;;;;;;31.00;28.00;;;;;;;;4999937;28;46061;-57
2022/11/13 15:09:22;;;;;;;;;32.00;31.00;;;;;;;;5000903;28;45505;-58
2022/11/13 15:11:47;;;;;;;;;31.00;30.67;;;;;;;;4998554;28;45616;-57
2022/11/13 15:14:13;;;;;;;;;27.33;26.67;;;;;;;;4999826;28;46037;-57
2022/11/13 15:16:38;;;;;;;;;29.00;28.67;;;;;;;;4998546;28;45269;-56
2022/11/13 15:19:08;;;;;;;;;11.67;9.33;;;;;;;;4999874;28;45476;-58
2022/11/13 15:21:33;;;;;;;;;20.33;20.33;;;;;;;;5000184;28;45414;-58
2022/11/13 15:24:00;;;;;;;;;29.00;27.67;;;;;;;;4989382;28;46393;-57
2022/11/13 15:26:25;;;;;;;;;23.67;22.00;;;;;;;;4999217;28;46323;-55
2022/11/13 15:28:50;;;;;;;;;18.00;18.00;;;;;;;;4999334;28;45833;-59
2022/11/13 15:31:20;;;;;;;;;21.33;19.33;;;;;;;;4997062;28;45446;-57
2022/11/13 15:33:46;;;;;;;;;24.00;24.00;;;;;;;;4993559;28;45294;-57
2022/11/13 15:36:11;;;;;;;;;26.67;26.33;;;;;;;;4999794;28;45321;-56
2022/11/13 15:38:37;;;;;;;;;29.67;24.00;;;;;;;;5000142;28;45625;-55
2022/11/13 15:41:07;;;;;;;;;29.67;26.67;;;;;;;;4981799;28;45421;-54
2022/11/13 15:43:32;;;;;;;;;34.33;32.33;;;;;;;;5000331;28;45485;-57
2022/11/13 15:45:57;;;;;;;;;29.67;29.33;;;;;;;;4980956;28;47183;-57
2022/11/13 15:48:22;;;;;;;;;34.00;31.00;;;;;;;;5000389;28;45350;-56
2022/11/13 15:50:48;;;;;;;;;25.67;24.67;;;;;;;;4997260;28;45459;-56
2022/11/13 15:53:13;;;;;;;;;30.33;28.33;;;;;;;;4997477;28;45409;-57
2022/11/13 15:55:39;;;;;;;;;34.33;29.33;;;;;;;;4999307;28;45353;-57
2022/11/13 15:58:04;;;;;;;;;34.67;31.00;;;;;;;;4999126;28;45369;-57
2022/11/13 16:00:30;;;;;;;;;43.33;37.00;;;;;;;;4999263;28;45425;-57
2022/11/13 16:02:56;;;;;;;;;52.00;41.67;;;;;;;;4998350;28;45656;-58
2022/11/13 16:05:24;;;;;;;;;46.67;36.33;;;;;;;;4999477;28;46259;-57
2022/11/13 16:07:49;;;;;;;;;37.67;32.67;;;;;;;;4996693;28;45649;-57
2022/11/13 16:10:14;;;;;;;;;41.67;35.67;;;;;;;;4999147;28;45393;-57
2022/11/13 16:12:39;;;;;;;;;37.33;32.33;;;;;;;;4999528;28;45321;-58
2022/11/13 16:15:05;;;;;;;;;44.33;33.33;;;;;;;;4998094;28;45476;-57
2022/11/13 16:17:32;;;;;;;;;49.33;34.00;;;;;;;;4998031;28;45761;-58
2022/11/13 16:19:57;;;;;;;;;32.67;30.00;;;;;;;;4998953;28;45472;-58
2022/11/13 16:22:24;;;;;;;;;36.00;32.33;;;;;;;;4981758;28;45278;-58
2022/11/13 16:24:49;;;;;;;;;33.33;31.33;;;;;;;;4998661;28;46063;-57
2022/11/13 16:27:17;;;;;;;;;40.67;31.33;;;;;;;;4995619;28;45401;-56
2022/11/13 16:29:43;;;;;;;;;32.67;31.00;;;;;;;;5001606;28;45401;-58
2022/11/13 16:32:12;;;;;;;;;30.67;28.67;;;;;;;;4999204;28;45381;-57
2022/11/13 16:34:38;;;;;;;;;33.33;31.00;;;;;;;;4994093;28;47059;-57
2022/11/13 16:37:03;;;;;;;;;29.33;27.67;;;;;;;;4998432;28;45347;-57
2022/11/13 16:39:28;;;;;;;;;31.33;26.67;;;;;;;;4998612;28;45625;-58
2022/11/13 16:41:54;;;;;;;;;29.33;27.67;;;;;;;;4979390;28;45385;-57
2022/11/13 16:44:19;;;;;;;;;36.33;29.33;;;;;;;;4998372;28;46188;-56
2022/11/13 16:46:44;;;;;;;;;31.33;29.33;;;;;;;;4999593;28;45399;-57
2022/11/13 16:49:11;;;;;;;;;31.67;29.33;;;;;;;;4999080;28;45497;-57
2022/11/13 16:51:36;;;;;;;;;40.00;33.00;;;;;;;;4998582;28;45380;-57
2022/11/13 16:54:01;;;;;;;;;35.67;33.00;;;;;;;;4996237;28;45454;-56
2022/11/13 16:56:27;;;;;;;;;40.33;33.33;;;;;;;;4998346;28;45355;-57
2022/11/13 16:58:56;;;;;;;;;31.00;29.00;;;;;;;;4997690;28;45485;-56
2022/11/13 17:01:22;;;;;;;;;36.67;31.00;;;;;;;;4998625;28;45489;-56
2022/11/13 17:03:47;;;;;;;;;31.00;28.33;;;;;;;;4997857;28;46681;-56
2022/11/13 17:06:20;;;;;;;;;32.00;29.67;;;;;;;;4997717;28;45354;-58
2022/11/13 17:08:49;;;;;;;;;30.00;29.67;;;;;;;;4998340;28;45430;-57
2022/11/13 17:11:15;;;;;;;;;30.33;29.00;;;;;;;;4996674;28;45600;-57
2022/11/13 17:13:40;;;;;;;;;32.00;27.67;;;;;;;;4995416;28;46065;-57
2022/11/13 17:16:05;;;;;;;;;34.67;30.67;;;;;;;;4995582;28;45456;-56
2022/11/13 17:18:31;;;;;;;;;28.00;28.00;;;;;;;;4998565;28;45407;-57
2022/11/13 17:20:56;;;;;;;;;33.33;32.00;;;;;;;;4997511;28;45400;-57
2022/11/13 17:23:21;;;;;;;;;28.00;27.67;;;;;;;;4998100;28;45455;-54
2022/11/13 17:25:47;;;;;;;;;34.67;31.00;;;;;;;;4993602;28;45520;-56
2022/11/13 17:28:12;;;;;;;;;29.33;28.67;;;;;;;;4979034;28;45383;-57
2022/11/13 17:30:37;;;;;;;;;39.67;31.67;;;;;;;;4997794;28;45675;-56
2022/11/13 17:33:02;;;;;;;;;34.67;31.33;;;;;;;;4997739;28;46298;-55
2022/11/13 17:35:27;;;;;;;;;34.67;30.67;;;;;;;;4998426;28;45750;-55
2022/11/13 17:37:52;;;;;;;;;28.00;25.67;;;;;;;;4997540;28;45422;-57
2022/11/13 17:40:18;;;;;;;;;40.00;33.00;;;;;;;;4998382;28;45457;-56
2022/11/13 17:42:43;;;;;;;;;37.33;32.00;;;;;;;;4997541;28;46106;-54
2022/11/13 17:45:08;;;;;;;;;35.67;30.00;;;;;;;;4995923;28;45430;-56
2022/11/13 17:47:33;;;;;;;;;30.67;29.33;;;;;;;;4996624;28;45477;-57
2022/11/13 17:49:59;;;;;;;;;35.33;32.00;;;;;;;;4991152;28;45454;-56
2022/11/13 17:52:24;;;;;;;;;33.33;30.00;;;;;;;;4997590;28;46176;-55
2022/11/13 17:54:49;;;;;;;;;34.67;31.00;;;;;;;;4997447;28;45460;-56
2022/11/13 17:57:14;;;;;;;;;36.67;31.67;;;;;;;;4997636;28;45380;-56
2022/11/13 17:59:40;;;;;;;;;36.67;31.33;;;;;;;;4991848;28;45755;-57
2022/11/13 18:02:05;;;;;;;;;33.67;30.33;;;;;;;;4986149;28;46178;-57
2022/11/13 18:04:30;;;;;;;;;35.33;32.33;;;;;;;;4995056;28;45622;-56
2022/11/13 18:06:56;;;;;;;;;35.33;32.00;;;;;;;;4994112;28;46042;-56
2022/11/13 18:09:21;;;;;;;;;36.00;31.00;;;;;;;;4996349;28;45432;-57
2022/11/13 18:11:46;;;;;;;;;35.00;31.00;;;;;;;;4992741;28;46203;-56
2022/11/13 18:14:12;;;;;;;;;35.33;32.33;;;;;;;;4991804;28;45370;-49
2022/11/13 18:16:37;;;;;;;;;43.67;34.33;;;;;;;;4995981;28;45515;-53
2022/11/13 18:19:05;;;;;;;;;43.67;36.00;;;;;;;;4997790;28;45460;-56
2022/11/13 18:21:32;;;;;;;;;43.33;36.00;;;;;;;;4979845;28;47105;-55
2022/11/13 18:24:03;;;;;;;;;37.67;33.67;;;;;;;;4998324;28;45357;-51
2022/11/13 18:26:29;;;;;;;;;38.33;34.00;;;;;;;;4998220;28;45732;-53
2022/11/13 18:28:54;;;;;;;;;40.33;34.00;;;;;;;;4997053;28;45337;-53
2022/11/13 18:31:19;;;;;;;;;34.33;32.67;;;;;;;;4998125;28;45491;-51
2022/11/13 18:33:45;;;;;;;;;42.00;33.67;;;;;;;;4995117;28;45468;-51
2022/11/13 18:36:10;;;;;;;;;35.00;32.33;;;;;;;;4994898;28;45491;-53
2022/11/13 18:38:36;;;;;;;;;38.00;33.33;;;;;;;;4996814;28;45595;-54
2022/11/13 18:41:02;;;;;;;;;36.67;33.33;;;;;;;;4996998;28;46019;-52
2022/11/13 18:43:28;;;;;;;;;37.67;33.00;;;;;;;;4999020;28;45351;-52
2022/11/13 18:46:00;;;;;;;;;46.00;36.33;;;;;;;;4996225;28;45369;-52
2022/11/13 18:48:52;;;;;;;;;45.67;37.33;;;;;;;;4994714;28;45458;-55
2022/11/13 18:51:21;;;;;;;;;44.67;38.67;;;;;;;;4997046;28;45373;-55
2022/11/13 18:53:48;;;;;;;;;41.33;36.33;;;;;;;;4995973;28;45435;-53
2022/11/13 18:56:15;;;;;;;;;50.67;39.00;;;;;;;;4993621;28;45651;-51
2022/11/13 18:58:41;;;;;;;;;37.33;32.67;;;;;;;;4995604;28;46352;-55
2022/11/13 19:01:11;;;;;;;;;45.67;39.00;;;;;;;;4993622;28;45460;-51
2022/11/13 19:03:36;;;;;;;;;47.00;36.67;;;;;;;;4981634;28;45536;-61
2022/11/13 19:06:03;;;;;;;;;38.33;34.67;;;;;;;;4978569;28;45636;-61
2022/11/13 19:08:28;;;;;;;;;42.67;35.67;;;;;;;;4977613;28;45573;-61
2022/11/13 19:10:53;;;;;;;;;43.67;36.67;;;;;;;;4992367;28;46159;-61
2022/11/13 19:13:19;;;;;;;;;48.00;40.33;;;;;;;;4999094;28;46913;-61
2022/11/13 19:15:44;;;;;;;;;52.33;39.67;;;;;;;;4995936;28;45440;-61
2022/11/13 19:18:09;;;;;;;;;50.75;41.50;;;;;;;;4992487;28;45487;-61
2022/11/13 19:20:36;;;;;;;;;48.00;38.75;;;;;;;;4998351;28;46506;-61
2022/11/13 19:23:02;;;;;;;;;43.67;37.00;;;;;;;;4997674;28;45452;-61
2022/11/13 19:25:27;;;;;;;;;46.33;37.00;;;;;;;;4991119;28;46761;-61
2022/11/13 19:27:53;;;;;;;;;47.00;39.33;;;;;;;;4993509;28;45651;-60
2022/11/13 19:30:18;;;;;;;;;51.00;40.00;;;;;;;;4994583;28;47084;-62
2022/11/13 19:32:43;;;;;;;;;48.33;39.67;;;;;;;;4988209;28;45613;-59
2022/11/13 19:35:09;;;;;;;;;42.00;35.00;;;;;;;;4995950;28;45389;-61
2022/11/13 19:37:34;;;;;;;;;44.33;37.33;;;;;;;;4994436;28;45428;-60
2022/11/13 19:39:59;;;;;;;;;46.33;39.00;;;;;;;;4992095;28;45964;-61
2022/11/13 19:42:24;;;;;;;;;50.67;38.00;;;;;;;;5001578;28;45409;-62
2022/11/13 19:44:49;;;;;;;;;42.67;36.67;;;;;;;;4977446;28;45506;-64
2022/11/13 19:47:15;;;;;;;;;43.67;35.67;;;;;;;;4995978;28;45326;-60
2022/11/13 19:49:40;;;;;;;;;43.67;35.67;;;;;;;;4984934;28;45747;-58
2022/11/13 19:52:05;;;;;;;;;42.33;34.67;;;;;;;;4994015;28;46926;-57
2022/11/13 19:54:30;;;;;;;;;47.33;39.33;;;;;;;;4997319;28;45356;-56
2022/11/13 19:56:56;;;;;;;;;47.67;37.33;;;;;;;;4994160;28;45794;-57
2022/11/13 19:59:21;;;;;;;;;43.33;38.00;;;;;;;;4988242;28;46137;-60
2022/11/13 20:01:46;;;;;;;;;39.00;34.33;;;;;;;;4996872;28;45433;-61
2022/11/13 20:04:12;;;;;;;;;46.67;37.33;;;;;;;;4999350;28;45619;-61
2022/11/13 20:06:37;;;;;;;;;41.67;36.33;;;;;;;;4992861;28;45942;-62
2022/11/13 20:09:03;;;;;;;;;42.33;36.00;;;;;;;;4994085;28;46560;-61
2022/11/13 20:11:28;;;;;;;;;48.33;38.67;;;;;;;;4993006;28;45464;-61
2022/11/13 20:13:54;;;;;;;;;48.00;37.67;;;;;;;;4980237;28;45533;-62
2022/11/13 20:16:20;;;;;;;;;44.33;37.67;;;;;;;;4990913;28;45861;-61
2022/11/13 20:18:46;;;;;;;;;45.00;37.33;;;;;;;;4987755;28;46164;-61
2022/11/13 20:21:11;;;;;;;;;35.33;32.00;;;;;;;;4993621;28;45998;-61
2022/11/13 20:23:37;;;;;;;;;48.67;38.00;;;;;;;;4999715;28;45466;-62
2022/11/13 20:26:06;;;;;;;;;43.33;36.00;;;;;;;;4997259;28;45556;-62
2022/11/13 20:28:32;;;;;;;;;39.00;34.00;;;;;;;;4993605;28;45345;-61
2022/11/13 20:31:01;;;;;;;;;36.00;33.00;;;;;;;;4986348;28;45509;-62
2022/11/13 20:33:28;;;;;;;;;40.00;35.67;;;;;;;;4996839;28;46038;-62
2022/11/13 20:35:53;;;;;;;;;47.67;37.00;;;;;;;;4978188;28;45947;-61
2022/11/13 20:38:19;;;;;;;;;41.67;34.33;;;;;;;;4991801;28;46250;-60
2022/11/13 20:40:44;;;;;;;;;46.33;36.00;;;;;;;;4995914;28;45637;-60
2022/11/13 20:43:09;;;;;;;;;45.33;37.33;;;;;;;;4991736;28;46043;-60
2022/11/13 20:45:34;;;;;;;;;39.00;31.00;;;;;;;;4993834;28;45325;-60
2022/11/13 20:48:00;;;;;;;;;39.00;36.00;;;;;;;;4992520;28;46034;-61
2022/11/13 20:50:25;;;;;;;;;44.67;36.00;;;;;;;;4993353;28;45916;-61
2022/11/13 20:52:51;;;;;;;;;37.67;33.00;;;;;;;;4997994;28;45527;-60
2022/11/13 20:55:16;;;;;;;;;36.33;32.00;;;;;;;;4998702;28;45609;-60
2022/11/13 20:57:41;;;;;;;;;45.00;34.33;;;;;;;;4997585;28;45353;-60
2022/11/13 21:00:07;;;;;;;;;38.00;33.33;;;;;;;;4995198;28;45466;-61
2022/11/13 21:02:32;;;;;;;;;40.33;32.00;;;;;;;;4997018;28;45708;-61
2022/11/13 21:04:57;;;;;;;;;39.00;33.67;;;;;;;;4992592;28;45503;-61
2022/11/13 21:07:23;;;;;;;;;35.67;29.33;;;;;;;;4997099;28;46076;-61
2022/11/13 21:09:48;;;;;;;;;36.33;30.00;;;;;;;;4998270;28;45667;-61
2022/11/13 21:12:13;;;;;;;;;40.00;31.67;;;;;;;;4994651;28;45548;-61
2022/11/13 21:14:38;;;;;;;;;38.00;32.00;;;;;;;;4991572;28;45368;-61
2022/11/13 21:17:03;;;;;;;;;38.00;31.00;;;;;;;;4978373;28;45935;-61
2022/11/13 21:19:29;;;;;;;;;32.67;31.33;;;;;;;;4996039;28;45389;-61
2022/11/13 21:21:54;;;;;;;;;45.00;37.67;;;;;;;;4993025;28;45357;-61